sensor_id;sensor_type;location;lat;lon;timestamp;temperature;humidity
15556;DHT22;7879;48.660;9.116;2023-04-04T00:02:14;0.80;99.90
15556;DHT22;7879;48.660;9.116;2023-04-04T00:04:42;0.80;99.90
15556;DHT22;7879;48.660;9.116;2023-04-04T00:07:08;0.80;99.90
15556;DHT22;7879;48.660;9.116;2023-04-04T00:09:35;0.80;99.90
15556;DHT22;7879;48.660;9.116;2023-04-04T00:12:02;0.80;99.90
15556;DHT22;7879;48.660;9.116;2023-04-04T00:14:29;0.70;99.90
15556;DHT22;7879;48.660;9.116;2023-04-04T00:16:56;0.70;99.90
15556;DHT22;7879;48.660;9.116;2023-04-04T00:19:23;0.70;99.90
15556;DHT22;7879;48.660;9.116;2023-04-04T00:21:51;0.70;99.90
15556;DHT22;7879;48.660;9.116;2023-04-04T00:24:18;0.70;99.90
15556;DHT22;7879;48.660;9.116;2023-04-04T00:26:44;0.70;99.90
15556;DHT22;7879;48.660;9.116;2023-04-04T00:29:11;0.60;99.90
15556;DHT22;7879;48.660;9.116;2023-04-04T00:31:38;0.60;99.90
15556;DHT22;7879;48.660;9.116;2023-04-04T00:34:04;0.60;99.90
15556;DHT22;7879;48.660;9.116;2023-04-04T00:36:31;0.60;99.90
15556;DHT22;7879;48.660;9.116;2023-04-04T00:38:59;0.60;99.90
15556;DHT22;7879;48.660;9.116;2023-04-04T00:41:25;0.60;99.90
15556;DHT22;7879;48.660;9.116;2023-04-04T00:43:54;0.60;99.90
15556;DHT22;7879;48.660;9.116;2023-04-04T00:46:21;0.60;99.90
15556;DHT22;7879;48.660;9.116;2023-04-04T00:48:50;0.60;99.90
15556;DHT22;7879;48.660;9.116;2023-04-04T00:51:19;0.60;99.90
15556;DHT22;7879;48.660;9.116;2023-04-04T00:53:46;0.60;99.90
15556;DHT22;7879;48.660;9.116;2023-04-04T00:56:14;0.60;99.90
15556;DHT22;7879;48.660;9.116;2023-04-04T00:58:42;0.60;99.90
15556;DHT22;7879;48.660;9.116;2023-04-04T01:01:09;0.50;99.90
15556;DHT22;7879;48.660;9.116;2023-04-04T01:03:39;0.50;99.90
15556;DHT22;7879;48.660;9.116;2023-04-04T01:06:07;0.50;99.90
15556;DHT22;7879;48.660;9.116;2023-04-04T01:08:36;0.50;99.90
15556;DHT22;7879;48.660;9.116;2023-04-04T01:11:04;0.40;99.90
15556;DHT22;7879;48.660;9.116;2023-04-04T01:13:32;0.50;99.90
15556;DHT22;7879;48.660;9.116;2023-04-04T01:15:59;0.50;99.90
15556;DHT22;7879;48.660;9.116;2023-04-04T01:18:27;0.40;99.90
15556;DHT22;7879;48.660;9.116;2023-04-04T01:21:01;0.50;99.90
15556;DHT22;7879;48.660;9.116;2023-04-04T01:24:00;0.40;99.90
15556;DHT22;7879;48.660;9.116;2023-04-04T01:26:29;0.50;99.90
15556;DHT22;7879;48.660;9.116;2023-04-04T01:28:57;0.50;99.90
15556;DHT22;7879;48.660;9.116;2023-04-04T01:31:39;0.40;99.90
15556;DHT22;7879;48.660;9.116;2023-04-04T01:34:19;0.40;99.90
15556;DHT22;7879;48.660;9.116;2023-04-04T01:37:17;0.40;99.90
15556;DHT22;7879;48.660;9.116;2023-04-04T01:39:55;0.40;99.90
15556;DHT22;7879;48.660;9.116;2023-04-04T01:42:23;0.40;99.90
15556;DHT22;7879;48.660;9.116;2023-04-04T01:44:55;0.40;99.90
15556;DHT22;7879;48.660;9.116;2023-04-04T01:47:22;0.40;99.90
15556;DHT22;7879;48.660;9.116;2023-04-04T01:49:50;0.40;99.90
15556;DHT22;7879;48.660;9.116;2023-04-04T01:52:19;0.40;99.90
15556;DHT22;7879;48.660;9.116;2023-04-04T01:54:46;0.40;99.90
15556;DHT22;7879;48.660;9.116;2023-04-04T01:57:13;0.30;99.90
15556;DHT22;7879;48.660;9.116;2023-04-04T01:59:39;0.30;99.90
15556;DHT22;7879;48.660;9.116;2023-04-04T02:02:06;0.30;99.90
15556;DHT22;7879;48.660;9.116;2023-04-04T02:04:33;0.20;99.90
15556;DHT22;7879;48.660;9.116;2023-04-04T02:07:00;0.20;99.90
15556;DHT22;7879;48.660;9.116;2023-04-04T02:09:27;0.20;99.90
15556;DHT22;7879;48.660;9.116;2023-04-04T02:11:53;0.20;99.90
15556;DHT22;7879;48.660;9.116;2023-04-04T02:14:21;0.20;99.90
15556;DHT22;7879;48.660;9.116;2023-04-04T02:16:48;0.20;99.90
15556;DHT22;7879;48.660;9.116;2023-04-04T02:19:15;0.20;99.90
15556;DHT22;7879;48.660;9.116;2023-04-04T02:21:42;0.10;99.90
15556;DHT22;7879;48.660;9.116;2023-04-04T02:24:09;0.10;99.90
15556;DHT22;7879;48.660;9.116;2023-04-04T02:26:36;0.00;99.90
15556;DHT22;7879;48.660;9.116;2023-04-04T02:29:03;0.00;99.90
15556;DHT22;7879;48.660;9.116;2023-04-04T02:31:29;0.10;99.90
15556;DHT22;7879;48.660;9.116;2023-04-04T02:33:56;0.00;99.90
15556;DHT22;7879;48.660;9.116;2023-04-04T02:36:23;0.00;99.90
15556;DHT22;7879;48.660;9.116;2023-04-04T02:38:50;0.10;99.90
15556;DHT22;7879;48.660;9.116;2023-04-04T02:41:17;0.00;99.90
15556;DHT22;7879;48.660;9.116;2023-04-04T02:43:44;0.00;99.90
15556;DHT22;7879;48.660;9.116;2023-04-04T02:46:10;0.00;99.90
15556;DHT22;7879;48.660;9.116;2023-04-04T02:48:47;0.00;99.90
15556;DHT22;7879;48.660;9.116;2023-04-04T02:51:14;0.00;99.90
15556;DHT22;7879;48.660;9.116;2023-04-04T02:53:41;0.00;99.90
15556;DHT22;7879;48.660;9.116;2023-04-04T02:56:08;0.00;99.90
15556;DHT22;7879;48.660;9.116;2023-04-04T02:58:35;0.00;99.90
15556;DHT22;7879;48.660;9.116;2023-04-04T03:01:01;-0.10;99.90
15556;DHT22;7879;48.660;9.116;2023-04-04T03:03:28;0.00;99.90
15556;DHT22;7879;48.660;9.116;2023-04-04T03:05:56;-0.10;99.90
15556;DHT22;7879;48.660;9.116;2023-04-04T03:08:23;-0.10;99.90
15556;DHT22;7879;48.660;9.116;2023-04-04T03:10:50;-0.10;99.90
15556;DHT22;7879;48.660;9.116;2023-04-04T03:13:17;-0.10;99.90
15556;DHT22;7879;48.660;9.116;2023-04-04T03:15:44;-0.20;99.90
15556;DHT22;7879;48.660;9.116;2023-04-04T03:18:13;-0.20;99.90
15556;DHT22;7879;48.660;9.116;2023-04-04T03:20:39;-0.20;99.90
15556;DHT22;7879;48.660;9.116;2023-04-04T03:23:07;-0.30;99.90
15556;DHT22;7879;48.660;9.116;2023-04-04T03:25:33;-0.30;99.90
15556;DHT22;7879;48.660;9.116;2023-04-04T03:28:08;-0.30;99.90
15556;DHT22;7879;48.660;9.116;2023-04-04T03:30:35;-0.40;99.90
15556;DHT22;7879;48.660;9.116;2023-04-04T03:33:05;-0.40;99.90
15556;DHT22;7879;48.660;9.116;2023-04-04T03:35:38;-0.40;99.90
15556;DHT22;7879;48.660;9.116;2023-04-04T03:38:06;-0.30;99.90
15556;DHT22;7879;48.660;9.116;2023-04-04T03:40:33;-0.30;99.90
15556;DHT22;7879;48.660;9.116;2023-04-04T03:43:00;-0.30;99.90
15556;DHT22;7879;48.660;9.116;2023-04-04T03:45:28;-0.30;99.90
15556;DHT22;7879;48.660;9.116;2023-04-04T03:47:58;-0.40;99.90
15556;DHT22;7879;48.660;9.116;2023-04-04T03:50:25;-0.40;99.90
15556;DHT22;7879;48.660;9.116;2023-04-04T03:52:52;-0.40;99.90
15556;DHT22;7879;48.660;9.116;2023-04-04T03:55:18;-0.40;99.90
15556;DHT22;7879;48.660;9.116;2023-04-04T03:57:45;-0.40;99.90
15556;DHT22;7879;48.660;9.116;2023-04-04T04:00:12;-0.40;99.90
15556;DHT22;7879;48.660;9.116;2023-04-04T04:02:39;-0.50;99.90
15556;DHT22;7879;48.660;9.116;2023-04-04T04:05:06;-0.50;99.90
15556;DHT22;7879;48.660;9.116;2023-04-04T04:07:34;-0.60;99.90
15556;DHT22;7879;48.660;9.116;2023-04-04T04:10:01;-0.60;99.90
15556;DHT22;7879;48.660;9.116;2023-04-04T04:12:28;-0.60;99.90
15556;DHT22;7879;48.660;9.116;2023-04-04T04:14:55;-0.60;99.90
15556;DHT22;7879;48.660;9.116;2023-04-04T04:17:22;-0.60;99.90
15556;DHT22;7879;48.660;9.116;2023-04-04T04:19:49;-0.60;99.90
15556;DHT22;7879;48.660;9.116;2023-04-04T04:22:16;-0.70;99.90
15556;DHT22;7879;48.660;9.116;2023-04-04T04:24:42;-0.60;99.90
15556;DHT22;7879;48.660;9.116;2023-04-04T04:27:09;-0.70;99.90
15556;DHT22;7879;48.660;9.116;2023-04-04T04:29:36;-0.60;99.90
15556;DHT22;7879;48.660;9.116;2023-04-04T04:32:03;-0.70;99.90
15556;DHT22;7879;48.660;9.116;2023-04-04T04:34:29;-0.70;99.90
15556;DHT22;7879;48.660;9.116;2023-04-04T04:36:56;-0.70;99.90
15556;DHT22;7879;48.660;9.116;2023-04-04T04:39:23;-0.70;99.90
15556;DHT22;7879;48.660;9.116;2023-04-04T04:41:50;-0.70;99.90
15556;DHT22;7879;48.660;9.116;2023-04-04T04:44:17;-0.70;99.90
15556;DHT22;7879;48.660;9.116;2023-04-04T04:46:44;-0.70;99.90
15556;DHT22;7879;48.660;9.116;2023-04-04T04:49:11;-0.70;99.90
15556;DHT22;7879;48.660;9.116;2023-04-04T04:51:38;-0.70;99.90
15556;DHT22;7879;48.660;9.116;2023-04-04T04:54:04;-0.80;99.90
15556;DHT22;7879;48.660;9.116;2023-04-04T04:56:31;-0.80;99.90
15556;DHT22;7879;48.660;9.116;2023-04-04T04:58:58;-0.80;99.90
15556;DHT22;7879;48.660;9.116;2023-04-04T05:01:25;-0.80;99.90
15556;DHT22;7879;48.660;9.116;2023-04-04T05:03:52;-0.90;99.90
15556;DHT22;7879;48.660;9.116;2023-04-04T05:06:19;-0.90;99.90
15556;DHT22;7879;48.660;9.116;2023-04-04T05:08:46;-0.90;99.90
15556;DHT22;7879;48.660;9.116;2023-04-04T05:11:13;-0.90;99.90
15556;DHT22;7879;48.660;9.116;2023-04-04T05:13:39;-0.90;99.90
15556;DHT22;7879;48.660;9.116;2023-04-04T05:16:06;-0.90;99.90
15556;DHT22;7879;48.660;9.116;2023-04-04T05:18:33;-0.90;99.90
15556;DHT22;7879;48.660;9.116;2023-04-04T05:21:00;-0.90;99.90
15556;DHT22;7879;48.660;9.116;2023-04-04T05:23:27;-0.90;99.90
15556;DHT22;7879;48.660;9.116;2023-04-04T05:25:53;-0.90;99.90
15556;DHT22;7879;48.660;9.116;2023-04-04T05:28:20;-0.90;99.90
15556;DHT22;7879;48.660;9.116;2023-04-04T05:30:48;-0.90;99.90
15556;DHT22;7879;48.660;9.116;2023-04-04T05:33:16;-1.00;99.90
15556;DHT22;7879;48.660;9.116;2023-04-04T05:35:43;-1.00;99.90
15556;DHT22;7879;48.660;9.116;2023-04-04T05:38:10;-1.00;99.90
15556;DHT22;7879;48.660;9.116;2023-04-04T05:40:36;-1.00;99.90
15556;DHT22;7879;48.660;9.116;2023-04-04T05:43:03;-1.00;99.90
15556;DHT22;7879;48.660;9.116;2023-04-04T05:45:30;-0.90;99.90
15556;DHT22;7879;48.660;9.116;2023-04-04T05:47:57;-0.90;99.90
15556;DHT22;7879;48.660;9.116;2023-04-04T05:50:24;-1.00;99.90
15556;DHT22;7879;48.660;9.116;2023-04-04T05:52:53;-1.00;99.90
15556;DHT22;7879;48.660;9.116;2023-04-04T05:55:20;-1.00;99.90
15556;DHT22;7879;48.660;9.116;2023-04-04T05:57:48;-1.00;99.90
15556;DHT22;7879;48.660;9.116;2023-04-04T06:00:17;-1.00;99.90
15556;DHT22;7879;48.660;9.116;2023-04-04T06:02:44;-1.00;99.90
15556;DHT22;7879;48.660;9.116;2023-04-04T06:05:15;-0.90;99.90
15556;DHT22;7879;48.660;9.116;2023-04-04T06:07:42;-1.00;99.90
15556;DHT22;7879;48.660;9.116;2023-04-04T06:10:09;-0.90;99.90
15556;DHT22;7879;48.660;9.116;2023-04-04T06:12:37;-0.90;99.90
15556;DHT22;7879;48.660;9.116;2023-04-04T06:15:04;-0.90;99.90
15556;DHT22;7879;48.660;9.116;2023-04-04T06:17:32;-0.90;99.90
15556;DHT22;7879;48.660;9.116;2023-04-04T06:19:58;-0.80;99.90
15556;DHT22;7879;48.660;9.116;2023-04-04T06:22:25;-0.80;99.90
15556;DHT22;7879;48.660;9.116;2023-04-04T06:24:52;-0.80;99.90
15556;DHT22;7879;48.660;9.116;2023-04-04T06:27:19;-0.80;99.90
15556;DHT22;7879;48.660;9.116;2023-04-04T06:29:46;-0.70;99.90
15556;DHT22;7879;48.660;9.116;2023-04-04T06:32:13;-0.70;99.90
15556;DHT22;7879;48.660;9.116;2023-04-04T06:34:39;-0.70;99.90
15556;DHT22;7879;48.660;9.116;2023-04-04T06:37:06;-0.60;99.90
15556;DHT22;7879;48.660;9.116;2023-04-04T06:39:33;-0.60;99.90
15556;DHT22;7879;48.660;9.116;2023-04-04T06:42:00;-0.60;99.90
15556;DHT22;7879;48.660;9.116;2023-04-04T06:44:27;-0.50;99.90
15556;DHT22;7879;48.660;9.116;2023-04-04T06:46:54;-0.50;99.90
15556;DHT22;7879;48.660;9.116;2023-04-04T06:49:21;-0.50;99.90
15556;DHT22;7879;48.660;9.116;2023-04-04T06:51:48;-0.40;99.90
15556;DHT22;7879;48.660;9.116;2023-04-04T06:54:17;-0.40;99.90
15556;DHT22;7879;48.660;9.116;2023-04-04T06:56:43;-0.30;99.90
15556;DHT22;7879;48.660;9.116;2023-04-04T06:59:10;-0.20;99.90
15556;DHT22;7879;48.660;9.116;2023-04-04T07:01:37;-0.20;99.90
15556;DHT22;7879;48.660;9.116;2023-04-04T07:04:04;-0.20;99.90
15556;DHT22;7879;48.660;9.116;2023-04-04T07:06:31;-0.10;99.90
15556;DHT22;7879;48.660;9.116;2023-04-04T07:08:58;-0.10;99.90
15556;DHT22;7879;48.660;9.116;2023-04-04T07:11:25;-0.10;99.90
15556;DHT22;7879;48.660;9.116;2023-04-04T07:13:52;0.00;99.90
15556;DHT22;7879;48.660;9.116;2023-04-04T07:16:19;0.10;99.90
15556;DHT22;7879;48.660;9.116;2023-04-04T07:18:46;0.10;99.90
15556;DHT22;7879;48.660;9.116;2023-04-04T07:21:13;0.10;99.90
15556;DHT22;7879;48.660;9.116;2023-04-04T07:23:39;0.20;99.90
15556;DHT22;7879;48.660;9.116;2023-04-04T07:26:06;0.20;99.90
15556;DHT22;7879;48.660;9.116;2023-04-04T07:28:33;0.30;99.90
15556;DHT22;7879;48.660;9.116;2023-04-04T07:31:00;0.30;99.90
15556;DHT22;7879;48.660;9.116;2023-04-04T07:33:29;0.30;99.90
15556;DHT22;7879;48.660;9.116;2023-04-04T07:38:39;0.40;99.90
15556;DHT22;7879;48.660;9.116;2023-04-04T07:41:05;0.40;99.90
15556;DHT22;7879;48.660;9.116;2023-04-04T07:43:32;0.50;99.90
15556;DHT22;7879;48.660;9.116;2023-04-04T07:45:59;0.50;99.90
15556;DHT22;7879;48.660;9.116;2023-04-04T07:48:27;0.60;99.90
15556;DHT22;7879;48.660;9.116;2023-04-04T07:50:54;0.70;99.90
15556;DHT22;7879;48.660;9.116;2023-04-04T07:53:36;0.80;99.90
15556;DHT22;7879;48.660;9.116;2023-04-04T07:56:07;0.90;99.90
15556;DHT22;7879;48.660;9.116;2023-04-04T07:58:43;0.80;99.80
15556;DHT22;7879;48.660;9.116;2023-04-04T08:01:10;0.80;99.90
15556;DHT22;7879;48.660;9.116;2023-04-04T08:03:40;0.90;99.90
15556;DHT22;7879;48.660;9.116;2023-04-04T08:06:08;1.00;99.90
15556;DHT22;7879;48.660;9.116;2023-04-04T08:08:35;1.00;99.90
15556;DHT22;7879;48.660;9.116;2023-04-04T08:11:02;1.00;99.70
15556;DHT22;7879;48.660;9.116;2023-04-04T08:13:35;1.10;99.90
15556;DHT22;7879;48.660;9.116;2023-04-04T08:16:03;1.10;99.90
15556;DHT22;7879;48.660;9.116;2023-04-04T08:18:33;1.30;99.90
15556;DHT22;7879;48.660;9.116;2023-04-04T08:21:02;1.30;99.80
15556;DHT22;7879;48.660;9.116;2023-04-04T08:23:29;1.30;99.90
15556;DHT22;7879;48.660;9.116;2023-04-04T08:25:57;1.40;99.70
15556;DHT22;7879;48.660;9.116;2023-04-04T08:28:27;1.40;99.60
15556;DHT22;7879;48.660;9.116;2023-04-04T08:30:54;1.40;99.60
15556;DHT22;7879;48.660;9.116;2023-04-04T08:33:22;1.50;99.50
15556;DHT22;7879;48.660;9.116;2023-04-04T08:36:13;1.50;99.60
15556;DHT22;7879;48.660;9.116;2023-04-04T08:38:48;1.60;99.30
15556;DHT22;7879;48.660;9.116;2023-04-04T08:41:19;1.80;99.80
15556;DHT22;7879;48.660;9.116;2023-04-04T08:43:51;1.80;98.90
15556;DHT22;7879;48.660;9.116;2023-04-04T08:46:23;1.80;99.20
15556;DHT22;7879;48.660;9.116;2023-04-04T08:48:57;1.90;99.00
15556;DHT22;7879;48.660;9.116;2023-04-04T08:51:27;2.00;98.50
15556;DHT22;7879;48.660;9.116;2023-04-04T08:54:04;2.00;98.40
15556;DHT22;7879;48.660;9.116;2023-04-04T08:56:44;2.20;98.60
15556;DHT22;7879;48.660;9.116;2023-04-04T08:59:10;2.30;98.30
15556;DHT22;7879;48.660;9.116;2023-04-04T09:01:41;2.30;98.50
15556;DHT22;7879;48.660;9.116;2023-04-04T09:04:10;2.40;98.50
15556;DHT22;7879;48.660;9.116;2023-04-04T09:06:38;2.50;98.30
15556;DHT22;7879;48.660;9.116;2023-04-04T09:09:09;2.60;97.30
15556;DHT22;7879;48.660;9.116;2023-04-04T09:11:39;2.50;97.20
15556;DHT22;7879;48.660;9.116;2023-04-04T09:14:09;2.50;97.80
15556;DHT22;7879;48.660;9.116;2023-04-04T09:16:42;2.80;97.20
15556;DHT22;7879;48.660;9.116;2023-04-04T09:19:08;3.00;96.70
15556;DHT22;7879;48.660;9.116;2023-04-04T09:21:38;3.10;96.40
15556;DHT22;7879;48.660;9.116;2023-04-04T09:24:11;3.20;96.80
15556;DHT22;7879;48.660;9.116;2023-04-04T09:26:49;3.40;96.70
15556;DHT22;7879;48.660;9.116;2023-04-04T09:29:20;3.50;95.70
15556;DHT22;7879;48.660;9.116;2023-04-04T09:31:57;3.70;95.60
15556;DHT22;7879;48.660;9.116;2023-04-04T09:34:24;3.90;95.40
15556;DHT22;7879;48.660;9.116;2023-04-04T09:37:00;3.90;95.30
15556;DHT22;7879;48.660;9.116;2023-04-04T09:39:51;3.80;94.40
15556;DHT22;7879;48.660;9.116;2023-04-04T09:42:28;3.70;95.00
15556;DHT22;7879;48.660;9.116;2023-04-04T09:44:55;3.70;93.90
15556;DHT22;7879;48.660;9.116;2023-04-04T09:47:28;3.60;94.30
15556;DHT22;7879;48.660;9.116;2023-04-04T09:50:07;4.00;93.80
15556;DHT22;7879;48.660;9.116;2023-04-04T09:52:41;4.50;94.10
15556;DHT22;7879;48.660;9.116;2023-04-04T09:55:17;4.70;93.30
15556;DHT22;7879;48.660;9.116;2023-04-04T09:57:45;5.00;93.40
15556;DHT22;7879;48.660;9.116;2023-04-04T10:00:25;5.30;91.90
15556;DHT22;7879;48.660;9.116;2023-04-04T10:02:56;5.60;92.30
15556;DHT22;7879;48.660;9.116;2023-04-04T10:05:37;5.80;91.20
15556;DHT22;7879;48.660;9.116;2023-04-04T10:08:15;5.50;90.80
15556;DHT22;7879;48.660;9.116;2023-04-04T10:10:47;5.20;91.20
15556;DHT22;7879;48.660;9.116;2023-04-04T10:13:36;5.30;91.60
15556;DHT22;7879;48.660;9.116;2023-04-04T10:16:10;5.40;90.20
15556;DHT22;7879;48.660;9.116;2023-04-04T10:18:41;5.50;90.30
15556;DHT22;7879;48.660;9.116;2023-04-04T10:21:08;5.30;88.60
15556;DHT22;7879;48.660;9.116;2023-04-04T10:23:43;5.40;90.10
15556;DHT22;7879;48.660;9.116;2023-04-04T10:26:11;5.40;89.70
15556;DHT22;7879;48.660;9.116;2023-04-04T10:28:39;5.60;88.60
15556;DHT22;7879;48.660;9.116;2023-04-04T10:31:24;5.80;90.00
15556;DHT22;7879;48.660;9.116;2023-04-04T10:36:49;6.20;90.10
15556;DHT22;7879;48.660;9.116;2023-04-04T10:39:35;6.20;88.10
15556;DHT22;7879;48.660;9.116;2023-04-04T10:42:09;6.30;88.30
15556;DHT22;7879;48.660;9.116;2023-04-04T10:44:42;6.60;86.10
15556;DHT22;7879;48.660;9.116;2023-04-04T10:47:17;6.70;87.50
15556;DHT22;7879;48.660;9.116;2023-04-04T10:49:51;6.90;86.10
15556;DHT22;7879;48.660;9.116;2023-04-04T10:52:23;6.90;85.30
15556;DHT22;7879;48.660;9.116;2023-04-04T10:54:56;6.90;85.30
15556;DHT22;7879;48.660;9.116;2023-04-04T10:57:27;6.90;84.30
15556;DHT22;7879;48.660;9.116;2023-04-04T11:08:03;7.70;82.70
15556;DHT22;7879;48.660;9.116;2023-04-04T11:10:40;7.30;82.50
15556;DHT22;7879;48.660;9.116;2023-04-04T11:13:25;7.30;82.10
15556;DHT22;7879;48.660;9.116;2023-04-04T11:16:10;7.50;83.60
15556;DHT22;7879;48.660;9.116;2023-04-04T11:24:13;8.10;82.70
15556;DHT22;7879;48.660;9.116;2023-04-04T11:27:05;8.30;80.80
15556;DHT22;7879;48.660;9.116;2023-04-04T11:29:53;8.50;81.70
15556;DHT22;7879;48.660;9.116;2023-04-04T11:32:33;8.10;80.40
15556;DHT22;7879;48.660;9.116;2023-04-04T11:35:11;7.60;79.30
15556;DHT22;7879;48.660;9.116;2023-04-04T11:38:05;7.20;80.30
15556;DHT22;7879;48.660;9.116;2023-04-04T11:40:56;7.50;80.20
15556;DHT22;7879;48.660;9.116;2023-04-04T11:43:25;7.80;83.40
15556;DHT22;7879;48.660;9.116;2023-04-04T11:45:53;8.00;79.40
15556;DHT22;7879;48.660;9.116;2023-04-04T11:48:23;7.70;80.40
15556;DHT22;7879;48.660;9.116;2023-04-04T11:50:52;7.90;80.10
15556;DHT22;7879;48.660;9.116;2023-04-04T11:53:24;7.90;79.50
15556;DHT22;7879;48.660;9.116;2023-04-04T11:55:53;7.80;79.50
15556;DHT22;7879;48.660;9.116;2023-04-04T11:58:22;7.90;80.20
15556;DHT22;7879;48.660;9.116;2023-04-04T12:00:57;8.10;79.60
15556;DHT22;7879;48.660;9.116;2023-04-04T12:03:28;8.20;79.50
15556;DHT22;7879;48.660;9.116;2023-04-04T12:05:59;8.40;79.40
15556;DHT22;7879;48.660;9.116;2023-04-04T12:08:27;8.40;76.10
15556;DHT22;7879;48.660;9.116;2023-04-04T12:11:03;8.20;77.10
15556;DHT22;7879;48.660;9.116;2023-04-04T12:13:32;7.80;77.10
15556;DHT22;7879;48.660;9.116;2023-04-04T12:15:59;7.70;77.40
15556;DHT22;7879;48.660;9.116;2023-04-04T12:18:36;7.80;77.70
15556;DHT22;7879;48.660;9.116;2023-04-04T12:21:06;8.10;78.10
15556;DHT22;7879;48.660;9.116;2023-04-04T12:23:35;8.20;76.90
15556;DHT22;7879;48.660;9.116;2023-04-04T12:26:02;8.30;76.80
15556;DHT22;7879;48.660;9.116;2023-04-04T12:28:41;8.10;75.30
15556;DHT22;7879;48.660;9.116;2023-04-04T12:31:15;8.00;75.60
15556;DHT22;7879;48.660;9.116;2023-04-04T12:33:43;8.00;75.90
15556;DHT22;7879;48.660;9.116;2023-04-04T12:36:10;7.90;75.50
15556;DHT22;7879;48.660;9.116;2023-04-04T12:38:59;7.80;75.50
15556;DHT22;7879;48.660;9.116;2023-04-04T12:42:01;7.70;75.30
15556;DHT22;7879;48.660;9.116;2023-04-04T12:44:40;7.70;76.40
15556;DHT22;7879;48.660;9.116;2023-04-04T12:47:09;7.80;75.60
15556;DHT22;7879;48.660;9.116;2023-04-04T12:49:42;7.70;75.10
15556;DHT22;7879;48.660;9.116;2023-04-04T12:52:17;7.80;75.80
15556;DHT22;7879;48.660;9.116;2023-04-04T12:54:45;7.90;75.40
15556;DHT22;7879;48.660;9.116;2023-04-04T12:57:23;7.80;74.20
15556;DHT22;7879;48.660;9.116;2023-04-04T12:59:53;7.60;74.30
15556;DHT22;7879;48.660;9.116;2023-04-04T13:02:21;7.60;75.20
15556;DHT22;7879;48.660;9.116;2023-04-04T13:04:53;7.60;75.10
15556;DHT22;7879;48.660;9.116;2023-04-04T13:07:27;7.60;74.70
15556;DHT22;7879;48.660;9.116;2023-04-04T13:09:57;7.50;73.70
15556;DHT22;7879;48.660;9.116;2023-04-04T13:12:25;7.40;73.00
15556;DHT22;7879;48.660;9.116;2023-04-04T13:15:04;7.40;72.80
15556;DHT22;7879;48.660;9.116;2023-04-04T13:17:47;7.40;73.40
15556;DHT22;7879;48.660;9.116;2023-04-04T13:20:16;7.50;72.60
15556;DHT22;7879;48.660;9.116;2023-04-04T13:22:43;7.50;73.20
15556;DHT22;7879;48.660;9.116;2023-04-04T13:25:10;7.60;73.40
15556;DHT22;7879;48.660;9.116;2023-04-04T13:27:38;7.60;73.30
15556;DHT22;7879;48.660;9.116;2023-04-04T13:30:05;7.50;72.70
15556;DHT22;7879;48.660;9.116;2023-04-04T13:32:35;7.50;73.70
15556;DHT22;7879;48.660;9.116;2023-04-04T13:35:02;7.60;73.00
15556;DHT22;7879;48.660;9.116;2023-04-04T13:37:29;7.60;72.90
15556;DHT22;7879;48.660;9.116;2023-04-04T13:39:57;7.50;71.70
15556;DHT22;7879;48.660;9.116;2023-04-04T13:42:23;7.50;72.90
15556;DHT22;7879;48.660;9.116;2023-04-04T13:44:56;7.60;73.30
15556;DHT22;7879;48.660;9.116;2023-04-04T13:47:24;7.70;72.90
15556;DHT22;7879;48.660;9.116;2023-04-04T13:49:53;7.70;71.90
15556;DHT22;7879;48.660;9.116;2023-04-04T13:52:20;7.70;72.50
15556;DHT22;7879;48.660;9.116;2023-04-04T13:54:48;7.50;70.70
15556;DHT22;7879;48.660;9.116;2023-04-04T13:57:14;7.50;71.30
15556;DHT22;7879;48.660;9.116;2023-04-04T13:59:42;7.60;71.80
15556;DHT22;7879;48.660;9.116;2023-04-04T14:02:08;7.70;72.30
15556;DHT22;7879;48.660;9.116;2023-04-04T14:04:36;7.70;70.90
15556;DHT22;7879;48.660;9.116;2023-04-04T14:07:03;7.60;70.90
15556;DHT22;7879;48.660;9.116;2023-04-04T14:09:30;7.60;70.20
15556;DHT22;7879;48.660;9.116;2023-04-04T14:11:57;7.60;70.10
15556;DHT22;7879;48.660;9.116;2023-04-04T14:14:24;7.60;69.00
15556;DHT22;7879;48.660;9.116;2023-04-04T14:16:50;7.50;70.20
15556;DHT22;7879;48.660;9.116;2023-04-04T14:19:18;7.50;70.10
15556;DHT22;7879;48.660;9.116;2023-04-04T14:21:47;7.60;71.60
15556;DHT22;7879;48.660;9.116;2023-04-04T14:24:16;7.60;70.30
15556;DHT22;7879;48.660;9.116;2023-04-04T14:26:44;7.50;69.70
15556;DHT22;7879;48.660;9.116;2023-04-04T14:29:11;7.50;71.10
15556;DHT22;7879;48.660;9.116;2023-04-04T14:31:39;7.50;70.80
15556;DHT22;7879;48.660;9.116;2023-04-04T14:34:07;7.50;70.00
15556;DHT22;7879;48.660;9.116;2023-04-04T14:36:34;7.50;70.40
15556;DHT22;7879;48.660;9.116;2023-04-04T14:39:01;7.50;69.00
15556;DHT22;7879;48.660;9.116;2023-04-04T14:41:28;7.50;69.60
15556;DHT22;7879;48.660;9.116;2023-04-04T14:43:55;7.60;70.80
15556;DHT22;7879;48.660;9.116;2023-04-04T14:46:22;7.60;70.80
15556;DHT22;7879;48.660;9.116;2023-04-04T14:48:50;7.70;71.00
15556;DHT22;7879;48.660;9.116;2023-04-04T14:51:18;7.70;70.40
15556;DHT22;7879;48.660;9.116;2023-04-04T14:53:45;7.80;70.80
15556;DHT22;7879;48.660;9.116;2023-04-04T14:56:12;7.70;69.50
15556;DHT22;7879;48.660;9.116;2023-04-04T14:58:39;7.70;69.20
15556;DHT22;7879;48.660;9.116;2023-04-04T15:01:06;7.70;69.20
15556;DHT22;7879;48.660;9.116;2023-04-04T15:03:33;7.70;70.10
15556;DHT22;7879;48.660;9.116;2023-04-04T15:06:01;7.70;69.80
15556;DHT22;7879;48.660;9.116;2023-04-04T15:08:28;7.70;68.90
15556;DHT22;7879;48.660;9.116;2023-04-04T15:10:54;7.50;69.60
15556;DHT22;7879;48.660;9.116;2023-04-04T15:13:21;7.60;70.00
15556;DHT22;7879;48.660;9.116;2023-04-04T15:15:48;7.60;70.80
15556;DHT22;7879;48.660;9.116;2023-04-04T15:18:16;7.60;70.50
15556;DHT22;7879;48.660;9.116;2023-04-04T15:20:42;7.50;70.00
15556;DHT22;7879;48.660;9.116;2023-04-04T15:23:09;7.50;69.60
15556;DHT22;7879;48.660;9.116;2023-04-04T15:25:36;7.50;69.40
15556;DHT22;7879;48.660;9.116;2023-04-04T15:28:03;7.50;70.30
15556;DHT22;7879;48.660;9.116;2023-04-04T15:30:30;7.50;69.70
15556;DHT22;7879;48.660;9.116;2023-04-04T15:32:57;7.50;70.40
15556;DHT22;7879;48.660;9.116;2023-04-04T15:35:24;7.40;70.50
15556;DHT22;7879;48.660;9.116;2023-04-04T15:37:50;7.50;70.20
15556;DHT22;7879;48.660;9.116;2023-04-04T15:40:18;7.40;71.00
15556;DHT22;7879;48.660;9.116;2023-04-04T15:42:45;7.40;71.40
15556;DHT22;7879;48.660;9.116;2023-04-04T15:45:13;7.40;71.00
15556;DHT22;7879;48.660;9.116;2023-04-04T15:47:40;7.40;71.50
15556;DHT22;7879;48.660;9.116;2023-04-04T15:50:08;7.30;71.30
15556;DHT22;7879;48.660;9.116;2023-04-04T15:52:36;7.30;71.20
15556;DHT22;7879;48.660;9.116;2023-04-04T15:55:05;7.20;70.50
15556;DHT22;7879;48.660;9.116;2023-04-04T15:57:35;7.10;70.40
15556;DHT22;7879;48.660;9.116;2023-04-04T16:00:02;7.00;70.60
15556;DHT22;7879;48.660;9.116;2023-04-04T16:02:30;7.10;71.30
15556;DHT22;7879;48.660;9.116;2023-04-04T16:04:57;7.10;71.00
15556;DHT22;7879;48.660;9.116;2023-04-04T16:07:24;7.20;70.60
15556;DHT22;7879;48.660;9.116;2023-04-04T16:09:51;7.10;71.50
15556;DHT22;7879;48.660;9.116;2023-04-04T16:12:18;7.10;71.30
15556;DHT22;7879;48.660;9.116;2023-04-04T16:14:45;7.10;70.70
15556;DHT22;7879;48.660;9.116;2023-04-04T16:17:12;7.10;70.50
15556;DHT22;7879;48.660;9.116;2023-04-04T16:19:39;7.00;69.70
15556;DHT22;7879;48.660;9.116;2023-04-04T16:22:06;7.00;71.20
15556;DHT22;7879;48.660;9.116;2023-04-04T16:24:33;7.00;71.40
15556;DHT22;7879;48.660;9.116;2023-04-04T16:27:00;7.00;70.80
15556;DHT22;7879;48.660;9.116;2023-04-04T16:29:27;6.80;71.00
15556;DHT22;7879;48.660;9.116;2023-04-04T16:31:56;6.80;71.50